METAR AND TAF INFORMATION
METAR FOR KBIL
ADDS - METARS form results

(2102 UTC 17 February 2019)
Data provider http://aviationweather.gov/metar/data/
 
METAR text: KBIL 172059Z 06006KT 2 1/2SM -SN SCT016 BKN030 OVC045 M14/M18 A3018 RMK AO2 P0000 T11441183 $
Conditions at: KBIL (BILLINGS , MT, US) observed 2059 UTC 17 February 2019
Temperature: -14.4°C ( 6°F)
Dewpoint: -18.3°C (-1°F) [RH = 72%]
Pressure (altimeter): 30.18 inches Hg (1022.1 mb)
Winds: from the ENE (60 degrees) at 7 MPH (6 knots; 3.1 m/s)
Visibility: 2.50 miles (4.02 km)
Ceiling: 3000 feet AGL
Clouds: scattered clouds at 1600 feet AGL
broken clouds at 3000 feet AGL
overcast cloud deck at 4500 feet AGL
Weather: -SN  (light snow)
SOME DATA ABOVE MAY BE INACCURATE!!!
"$" is an indication the sensor requires maintenance

METAR text: KBIL 172053Z 09006KT 1 1/2SM -SN SCT016 BKN034 OVC050 M14/M18 A3018 RMK AO2 SNB48 SLP296 P0001 60002 T11441178 51005 $
Conditions at: KBIL (BILLINGS , MT, US) observed 2053 UTC 17 February 2019
Temperature: -14.4°C ( 6°F)
Dewpoint: -17.8°C (-0°F) [RH = 75%]
Pressure (altimeter): 30.18 inches Hg (1022.1 mb)
[Sea-level pressure: 1029.6 mb]
Winds: from the E (90 degrees) at 7 MPH (6 knots; 3.1 m/s)
Visibility: 1.50 miles (2.41 km)
Ceiling: 3400 feet AGL
Clouds: scattered clouds at 1600 feet AGL
broken clouds at 3400 feet AGL
overcast cloud deck at 5000 feet AGL
Weather: -SN  (light snow)
SOME DATA ABOVE MAY BE INACCURATE!!!
"$" is an indication the sensor requires maintenance

METAR text: KBIL 172051Z 08005KT 1 3/4SM -SN SCT016 BKN039 OVC050 M14/M18 A3018 RMK AO2 SNB48 P0001 $
Conditions at: KBIL (BILLINGS , MT, US) observed 2051 UTC 17 February 2019
Temperature: -14.0°C ( 7°F)
Dewpoint: -18.0°C (-0°F) [RH = 72%]
Pressure (altimeter): 30.18 inches Hg (1022.1 mb)
Winds: from the E (80 degrees) at 6 MPH (5 knots; 2.6 m/s)
Visibility: 1.75 miles (2.82 km)
Ceiling: 3900 feet AGL
Clouds: scattered clouds at 1600 feet AGL
broken clouds at 3900 feet AGL
overcast cloud deck at 5000 feet AGL
Weather: -SN  (light snow)
SOME DATA ABOVE MAY BE INACCURATE!!!
"$" is an indication the sensor requires maintenance

METAR text: KBIL 172008Z 11004KT 5SM HZ FEW018 BKN042 OVC050 M15/M18 A3017 RMK AO2 T11501183 $
Conditions at: KBIL (BILLINGS , MT, US) observed 2008 UTC 17 February 2019
Temperature: -15.0°C ( 5°F)
Dewpoint: -18.3°C (-1°F) [RH = 76%]
Pressure (altimeter): 30.17 inches Hg (1021.8 mb)
Winds: from the ESE (110 degrees) at 5 MPH (4 knots; 2.1 m/s)
Visibility: 5 miles ( 8 km)
Ceiling: 4200 feet AGL
Clouds: few clouds at 1800 feet AGL
broken clouds at 4200 feet AGL
overcast cloud deck at 5000 feet AGL
Weather: HZ  (haze)
SOME DATA ABOVE MAY BE INACCURATE!!!
"$" is an indication the sensor requires maintenance

Forecast for: KBIL (BILLINGS , MT, US)
Text: KBIL 171734Z 1718/1818 08010KT 3SM -SN BR BKN020 OVC030
Forecast period: 1800 to 2100 UTC 17 February 2019
Forecast type: FROM: standard forecast or significant change
Winds: from the E (80 degrees) at 12 MPH (10 knots; 5.1 m/s)
Visibility: 3 miles (5 km)
Ceiling: 2000 feet AGL
Clouds: broken clouds at 2000 feet AGL
overcast cloud deck at 3000 feet AGL
Weather: -SN BR  (light snow, mist)
Text: TEMPO 1718/1719 1 1/2SM -SN BR
Forecast period: 1800 to 1900 UTC 17 February 2019
Forecast type: TEMPORARY: The following changes expected for less than half the time period
Visibility: 1.50 miles (2.41 km)
Ceiling: unknown
Clouds: missing
Weather: -SN BR  (light snow, mist)
Text: FM172100 06010KT 6SM -SN SCT030 OVC050
Forecast period: 2100 UTC 17 February 2019 to 0000 UTC 18 February 2019
Forecast type: FROM: standard forecast or significant change
Winds: from the ENE (60 degrees) at 12 MPH (10 knots; 5.1 m/s)
Visibility: 6 miles (10 km)
Ceiling: 5000 feet AGL
Clouds: scattered clouds at 3000 feet AGL
overcast cloud deck at 5000 feet AGL
Weather: -SN  (light snow)
Text: FM180000 VRB06KT P6SM OVC050
Forecast period: 0000 to 0900 UTC 18 February 2019
Forecast type: FROM: standard forecast or significant change
Winds: variable direction winds at 7 MPH (6 knots; 3.1 m/s)
Visibility: 6 or more miles 10+ km)
Ceiling: 5000 feet AGL
Clouds: overcast cloud deck at 5000 feet AGL
Weather: no significant weather forecast for this period
Text: FM180900 22007KT P6SM BKN050
Forecast period: 0900 to 1800 UTC 18 February 2019
Forecast type: FROM: standard forecast or significant change
Winds: from the SW (220 degrees) at 8 MPH (7 knots; 3.6 m/s)
Visibility: 6 or more miles 10+ km)
Ceiling: 5000 feet AGL
Clouds: broken clouds at 5000 feet AGL
Weather: no significant weather forecast for this period

 AIRPORT MAP

 RUNWAY INFORMATION
Runway 07 Runway length 5501 ft Runway width 75 ft
Runway elevation 3636 ft Runway displaced threshold 0 ft Runway heading 84
Runway 25 Runway length 5501 ft Runway width 75 ft
Runway elevation 3534 ft Runway displaced threshold 0 ft Runway heading 264
Runway 10L Runway length 10518 ft Runway width 150 ft
Runway elevation 3584 ft Runway displaced threshold 0 ft Runway heading 112
Runway 28R Runway length 10518 ft Runway width 150 ft
Runway elevation 3488 ft Runway displaced threshold 0 ft Runway heading 292
Runway 10R Runway length 3801 ft Runway width 75 ft
Runway elevation 3652 ft Runway displaced threshold 0 ft Runway heading 112
Runway 28L Runway length 3801 ft Runway width 75 ft
Runway elevation 3607 ft Runway displaced threshold 0 ft Runway heading 292

 AIRPORT FREQUENCIES
Type A/D Name APP/DEP Frequency 119.2 MHZ
Type ATIS Name ATIS Frequency 126.3 MHZ
Type CLD Name CLNC DEL Frequency 121.9 MHZ
Type GND Name GND Frequency 121.9 MHZ
Type RDO Name GREAT FALL Frequency 122.55 MHZ
Type TWR Name TWR Frequency 124.2 MHZ
Type UNIC Name UNICOM Frequency 122.95 MHZ

 AIRPORT NEAR NAVIGATION AIDS
Type NDB Name Saige Frequency 251 KHZ
Type VORTAC Name Billings Frequency 114500 KHZ



Powered by Virtual Airlines Manager [v2.6.2]